Time;durP1;ratioP1;P1;durP2;ratioP2;P2;SDS_P1;SDS_P2;PMS_P1;PMS_P2;Temp;Humidity;BMP_temperature;BMP_pressure;BME280_temperature;BME280_humidity;BME280_pressure;Samples;Min_cycle;Max_cycle;Signal;HPM_P1;HPM_P2
2022/04/22 00:00:47;;;;;;;6.4;4.9;;;;;;;6.56;73.23828;924.4312;;;;
2022/04/22 00:03:17;;;;;;;5.7;5;;;;;;;6.6;73.37012;924.4281;;;;
2022/04/22 00:05:47;;;;;;;5.3;4.8;;;;;;;6.6;73.11035;924.3727;;;;
2022/04/22 00:08:11;;;;;;;6.6;5.1;;;;;;;6.66;72.56445;924.4292;;;;
2022/04/22 00:11:29;;;;;;;7.2;5;;;;;;;6.56;72.93262;924.3244;;;;
2022/04/22 00:13:07;;;;;;;7.3;4.7;;;;;;;6.5;73.4209;924.3038;;;;
2022/04/22 00:15:39;;;;;;;6;4.5;;;;;;;6.56;73.18164;924.3497;;;;
2022/04/22 00:18:04;;;;;;;6.4;4.9;;;;;;;6.51;73.31934;924.3417;;;;
2022/04/22 00:20:29;;;;;;;5.7;4.4;;;;;;;6.55;73.02344;924.2089;;;;
2022/04/22 00:22:56;;;;;;;7.5;5.1;;;;;;;6.6;72.80469;924.2336;;;;
2022/04/22 00:25:21;;;;;;;7.9;5.1;;;;;;;6.51;73.19531;924.22;;;;
2022/04/22 00:27:47;;;;;;;7.3;5.5;;;;;;;6.46;73.68457;924.1337;;;;
2022/04/22 00:30:12;;;;;;;8.1;5.2;;;;;;;6.28;74.42285;924.0864;;;;
2022/04/22 00:32:40;;;;;;;6.6;5.2;;;;;;;6.21;74.87305;924.046;;;;
2022/04/22 00:35:05;;;;;;;5.8;4.6;;;;;;;6.32;74.29297;924.0865;;;;
2022/04/22 00:38:31;;;;;;;7.2;5.3;;;;;;;6.38;74.12305;924.089;;;;
2022/04/22 00:40:52;;;;;;;5.4;4.9;;;;;;;6.11;75.20605;924.0659;;;;
2022/04/22 00:43:15;;;;;;;5.1;4.6;;;;;;;6.22;74.67188;924.0341;;;;
2022/04/22 00:45:41;;;;;;;6.5;5;;;;;;;6.25;74.40625;924.0089;;;;
2022/04/22 00:48:06;;;;;;;5.9;4.8;;;;;;;6.23;74.34668;924.0642;;;;
2022/04/22 00:50:37;;;;;;;6.1;5.1;;;;;;;6.2;75.17676;924.0536;;;;
2022/04/22 00:53:06;;;;;;;6.1;5.5;;;;;;;6.23;75.08203;924.0437;;;;
2022/04/22 00:55:31;;;;;;;6.3;5.3;;;;;;;6.25;74.92676;923.9852;;;;
2022/04/22 00:57:58;;;;;;;6.8;5.6;;;;;;;6.2;74.56641;923.8298;;;;
2022/04/22 01:00:23;;;;;;;6.8;6;;;;;;;6.15;74.45508;923.889;;;;
2022/04/22 01:02:53;;;;;;;8;5.5;;;;;;;6.11;74.38184;923.836;;;;
2022/04/22 01:10:11;;;;;;;6.4;5.8;;;;;;;6.13;73.60449;923.7609;;;;
2022/04/22 01:12:36;;;;;;;5.9;5.1;;;;;;;5.93;74.40625;923.7349;;;;
2022/04/22 01:15:03;;;;;;;6.8;5.5;;;;;;;5.74;75.30078;923.8331;;;;
2022/04/22 01:17:29;;;;;;;7.3;5.6;;;;;;;5.66;75.17383;923.7444;;;;
2022/04/22 01:19:56;;;;;;;6.3;5.7;;;;;;;5.59;75.6123;923.7983;;;;
2022/04/22 01:22:20;;;;;;;8;6.2;;;;;;;5.4;76.55859;923.7332;;;;
2022/04/22 01:24:48;;;;;;;8;6.4;;;;;;;5.5;76.46387;923.7047;;;;
2022/04/22 01:27:13;;;;;;;6.2;5.6;;;;;;;5.41;76.82129;923.7367;;;;
2022/04/22 01:29:41;;;;;;;7.1;6.1;;;;;;;5.4;76.85352;923.6969;;;;
2022/04/22 01:32:06;;;;;;;8.8;6;;;;;;;5.46;76.59277;923.6841;;;;
2022/04/22 01:34:31;;;;;;;9.7;7;;;;;;;5.4;77.20215;923.6242;;;;
2022/04/22 01:36:57;;;;;;;6.5;5.8;;;;;;;5.21;78.20508;923.6525;;;;
2022/04/22 01:39:23;;;;;;;8;6.2;;;;;;;5.14;78.6543;923.632;;;;
2022/04/22 01:41:48;;;;;;;9.8;6.1;;;;;;;5.12;78.51563;923.6611;;;;
2022/04/22 01:44:13;;;;;;;7.6;5.9;;;;;;;5.22;78.02832;923.5879;;;;
2022/04/22 01:46:38;;;;;;;7.9;6;;;;;;;5.29;77.98535;923.6064;;;;
2022/04/22 01:49:03;;;;;;;7.9;6.1;;;;;;;5.36;77.47754;923.5687;;;;
2022/04/22 01:52:04;;;;;;;9;6.3;;;;;;;5.43;77.03809;923.4835;;;;
2022/04/22 01:54:31;;;;;;;8.8;6;;;;;;;5.34;77.06641;923.5174;;;;
2022/04/22 01:57:58;;;;;;;8.2;5.6;;;;;;;5.41;77.34082;923.5047;;;;
2022/04/22 02:00:23;;;;;;;8.8;6;;;;;;;5.45;77.34863;923.4922;;;;
2022/04/22 02:02:57;;;;;;;6;5.3;;;;;;;5.44;77.44727;923.508;;;;
2022/04/22 02:05:26;;;;;;;6.7;5.4;;;;;;;5.45;76.97363;923.493;;;;
2022/04/22 02:07:59;;;;;;;7.2;5.6;;;;;;;5.46;76.92188;923.4915;;;;
2022/04/22 02:10:27;;;;;;;6.2;5.3;;;;;;;5.44;76.73633;923.4637;;;;
2022/04/22 02:12:56;;;;;;;6.5;5.3;;;;;;;5.37;77.40039;923.4174;;;;
2022/04/22 02:15:32;;;;;;;7.7;5.7;;;;;;;5.36;77.35352;923.4283;;;;
2022/04/22 02:17:57;;;;;;;6;5.2;;;;;;;5.4;77.17969;923.4222;;;;
2022/04/22 02:20:24;;;;;;;7.3;5.5;;;;;;;5.35;77.39648;923.4883;;;;
2022/04/22 02:22:49;;;;;;;7.1;5.9;;;;;;;5.32;77.1084;923.4369;;;;
2022/04/22 02:25:19;;;;;;;6.2;5.4;;;;;;;5.38;77.31348;923.449;;;;
2022/04/22 02:30:30;;;;;;;6;5.2;;;;;;;5.24;77.25293;923.4017;;;;
2022/04/22 02:33:00;;;;;;;5.7;5.2;;;;;;;5.04;78.18555;923.3357;;;;
2022/04/22 02:35:25;;;;;;;8.3;5.3;;;;;;;5.06;78.41504;923.3272;;;;
2022/04/22 02:37:54;;;;;;;8.5;5.9;;;;;;;4.92;78.99707;923.3016;;;;
2022/04/22 02:45:28;;;;;;;6.3;5.5;;;;;;;4.79;79.60352;923.291;;;;
2022/04/22 02:47:40;;;;;;;5.8;5.2;;;;;;;4.79;79.9209;923.2272;;;;
2022/04/22 02:50:15;;;;;;;7;5.9;;;;;;;4.93;79.12305;923.207;;;;
2022/04/22 02:52:47;;;;;;;9.1;7;;;;;;;4.68;80.27051;923.1484;;;;
2022/04/22 02:55:18;;;;;;;8.1;6;;;;;;;4.37;82.18164;923.1511;;;;
2022/04/22 02:57:48;;;;;;;7.2;5.8;;;;;;;4.43;82.20703;923.118;;;;
2022/04/22 03:00:13;;;;;;;6.7;5.7;;;;;;;4.59;81.22461;923.0553;;;;
2022/04/22 03:02:44;;;;;;;8.3;5.8;;;;;;;4.75;80.3418;923.0865;;;;
2022/04/22 03:05:17;;;;;;;6.3;5.4;;;;;;;4.8;79.55078;923.0183;;;;
2022/04/22 03:22:03;;;;;;;7.4;5.5;;;;;;;4.8;79.48242;922.8716;;;;
2022/04/22 03:24:32;;;;;;;7.6;5.6;;;;;;;4.63;79.94629;922.6902;;;;
2022/04/22 03:26:57;;;;;;;6;5.1;;;;;;;4.49;80.77637;922.633;;;;
2022/04/22 03:29:22;;;;;;;7.2;5.4;;;;;;;4.56;80.25;922.6917;;;;
2022/04/22 03:31:50;;;;;;;7.1;5.4;;;;;;;4.68;79.66406;922.6975;;;;
2022/04/22 03:34:16;;;;;;;6.1;5.4;;;;;;;4.67;79.41406;922.6895;;;;
2022/04/22 03:36:45;;;;;;;8.4;5.6;;;;;;;4.64;79.67969;922.6523;;;;
2022/04/22 03:39:15;;;;;;;11.1;6.6;;;;;;;4.43;80.33691;922.698;;;;
2022/04/22 03:41:40;;;;;;;6.3;5.3;;;;;;;4.51;80.07031;922.6749;;;;
2022/04/22 03:44:06;;;;;;;6.9;5.8;;;;;;;4.36;80.92188;922.6271;;;;
2022/04/22 03:46:31;;;;;;;7.4;5.8;;;;;;;4.22;81.63672;922.6411;;;;
2022/04/22 03:49:00;;;;;;;7.4;5.8;;;;;;;4.18;81.77637;922.6822;;;;
2022/04/22 03:51:26;;;;;;;6.1;5.4;;;;;;;4.17;81.94141;922.601;;;;
2022/04/22 03:53:54;;;;;;;6.7;5.4;;;;;;;4.27;81.50977;922.5854;;;;
2022/04/22 03:58:44;;;;;;;7;5.9;;;;;;;4.24;81.56152;922.4852;;;;
2022/04/22 04:03:27;;;;;;;5.8;4.9;;;;;;;4.35;81.29883;922.445;;;;
2022/04/22 04:16:57;;;;;;;11;6.4;;;;;;;4.42;80.61621;922.4434;;;;
2022/04/22 04:24:21;;;;;;;6.6;5.5;;;;;;;4.45;80.3291;922.4625;;;;
2022/04/22 04:26:46;;;;;;;7.7;6.4;;;;;;;4.53;79.65723;922.4489;;;;
2022/04/22 04:33:05;;;;;;;9.6;5.8;;;;;;;4.42;80.34668;922.4166;;;;
2022/04/22 04:35:30;;;;;;;11.9;6.3;;;;;;;4.45;80.19434;922.4956;;;;
2022/04/22 04:38:00;;;;;;;8.7;5.8;;;;;;;4.49;80.15527;922.488;;;;
2022/04/22 04:40:25;;;;;;;7.9;5.7;;;;;;;4.49;80.07813;922.4131;;;;
2022/04/22 04:43:00;;;;;;;9.7;6.1;;;;;;;4.61;79.94336;922.4842;;;;
2022/04/22 04:45:23;;;;;;;11.1;5.9;;;;;;;4.61;80.06641;922.4299;;;;
2022/04/22 04:47:52;;;;;;;10.3;6.1;;;;;;;4.66;80.16504;922.4373;;;;
2022/04/22 04:50:24;;;;;;;7.1;5.7;;;;;;;4.71;80.89648;922.4808;;;;
2022/04/22 05:03:40;;;;;;;10.7;6.7;;;;;;;4.67;80.05664;922.5792;;;;
2022/04/22 05:06:13;;;;;;;8.4;6.2;;;;;;;4.68;80.30371;922.5737;;;;
2022/04/22 05:08:47;;;;;;;10.7;7;;;;;;;4.76;80.36621;922.6649;;;;
2022/04/22 05:11:16;;;;;;;10.2;6.7;;;;;;;4.81;79.82227;922.6339;;;;
2022/04/22 05:13:41;;;;;;;10.6;7.4;;;;;;;4.91;79.64941;922.6572;;;;
2022/04/22 05:16:13;;;;;;;9.1;6.7;;;;;;;4.91;80.15625;922.5989;;;;
2022/04/22 05:18:41;;;;;;;10.2;7.2;;;;;;;4.98;79.09961;922.6245;;;;
2022/04/22 05:21:05;;;;;;;9.2;7.2;;;;;;;5.08;78.7793;922.6386;;;;
2022/04/22 05:23:35;;;;;;;12.2;7.5;;;;;;;5.11;78.80762;922.6324;;;;
2022/04/22 05:26:05;;;;;;;12.7;7.6;;;;;;;5.09;79.43555;922.6678;;;;
2022/04/22 05:28:31;;;;;;;9.1;7.1;;;;;;;5.2;79.33105;922.6209;;;;
2022/04/22 05:33:25;;;;;;;9.9;7.6;;;;;;;5.38;79.41016;922.6282;;;;
2022/04/22 05:35:50;;;;;;;10.6;8.1;;;;;;;5.43;78.36914;922.6752;;;;
2022/04/22 05:38:18;;;;;;;9.8;7.5;;;;;;;5.46;78.44531;922.6699;;;;
2022/04/22 05:40:44;;;;;;;9.8;7.6;;;;;;;5.56;77.54785;922.6526;;;;
2022/04/22 05:43:08;;;;;;;8.6;6.8;;;;;;;5.65;76.7168;922.6233;;;;
2022/04/22 05:45:38;;;;;;;9.7;7.1;;;;;;;5.62;77.57031;922.6027;;;;
2022/04/22 05:48:07;;;;;;;9.5;7.4;;;;;;;5.69;77.70703;922.6564;;;;
2022/04/22 05:50:32;;;;;;;12.3;7.7;;;;;;;5.8;77.5918;922.6203;;;;
2022/04/22 05:53:02;;;;;;;9.9;7.3;;;;;;;5.83;77.03223;922.5773;;;;
2022/04/22 05:55:33;;;;;;;9.9;7.4;;;;;;;5.98;76.16699;922.5391;;;;
2022/04/22 05:58:02;;;;;;;10.8;7.4;;;;;;;6.1;75.26172;922.5046;;;;
2022/04/22 06:00:27;;;;;;;10.6;7.5;;;;;;;6.04;75.26172;922.4833;;;;
2022/04/22 06:03:03;;;;;;;12.2;7.8;;;;;;;5.97;75.65527;922.4688;;;;
2022/04/22 06:05:33;;;;;;;10.8;7.4;;;;;;;6.29;76.84375;922.399;;;;
2022/04/22 06:10:33;;;;;;;7.9;6.3;;;;;;;6.14;77.4375;922.3616;;;;
2022/04/22 06:12:55;;;;;;;11.8;7.1;;;;;;;6.14;77.57324;922.3323;;;;
2022/04/22 06:15:25;;;;;;;8.7;7.1;;;;;;;6.14;76.32031;922.3292;;;;
2022/04/22 06:17:51;;;;;;;8.6;7.1;;;;;;;6.23;75.62402;922.3003;;;;
2022/04/22 06:20:15;;;;;;;11.8;7.3;;;;;;;6.06;76.67871;922.2289;;;;
2022/04/22 06:22:45;;;;;;;8.4;7;;;;;;;6.16;76.83008;922.1909;;;;
2022/04/22 06:25:35;;;;;;;10.6;6.3;;;;;;;6.48;75.44141;922.1429;;;;
2022/04/22 06:28:00;;;;;;;15.5;7.7;;;;;;;6.78;75.21094;922.0881;;;;
2022/04/22 06:30:25;;;;;;;9;6;;;;;;;7.03;73.46582;922.0245;;;;
2022/04/22 06:32:52;;;;;;;7.5;5.6;;;;;;;8.03;70.14063;922.0314;;;;
2022/04/22 06:36:17;;;;;;;6.6;5.1;;;;;;;8.1;69.06152;922.0317;;;;
2022/04/22 06:38:42;;;;;;;9.2;6;;;;;;;7.76;71.93457;921.9907;;;;
2022/04/22 06:46:03;;;;;;;7;6.2;;;;;;;8.48;69.62207;921.8318;;;;
2022/04/22 06:48:35;;;;;;;6.5;5.5;;;;;;;8.91;68.65918;921.7645;;;;
2022/04/22 06:51:08;;;;;;;7.1;5.9;;;;;;;9.39;65.58105;921.7425;;;;
2022/04/22 06:53:36;;;;;;;7.5;5.6;;;;;;;9.73;64.58398;921.6256;;;;
2022/04/22 06:56:07;;;;;;;10.2;6.2;;;;;;;9.89;64.44727;921.6879;;;;
2022/04/22 06:58:45;;;;;;;8.3;6.1;;;;;;;9.9;64.84668;921.6711;;;;
2022/04/22 07:01:14;;;;;;;9.8;5.8;;;;;;;9.83;63.67578;921.692;;;;
2022/04/22 07:03:39;;;;;;;8.1;6;;;;;;;9.75;64.64258;921.6778;;;;
2022/04/22 07:06:04;;;;;;;9.3;5.9;;;;;;;10;64.68066;921.6808;;;;
2022/04/22 07:08:35;;;;;;;11.5;5.7;;;;;;;10.14;63.85645;921.6041;;;;
2022/04/22 07:11:05;;;;;;;7;5.9;;;;;;;10.2;62.91895;921.6555;;;;
2022/04/22 07:13:30;;;;;;;6.6;5;;;;;;;10.24;63.55176;921.6675;;;;
2022/04/22 07:16:04;;;;;;;11;5.9;;;;;;;10.6;61.6875;921.6767;;;;
2022/04/22 07:18:30;;;;;;;77.6;14.8;;;;;;;10.63;62.24023;921.6351;;;;
2022/04/22 07:20:55;;;;;;;17.2;6.7;;;;;;;10.77;61.76953;921.5871;;;;
2022/04/22 07:23:20;;;;;;;15.3;6.5;;;;;;;10.92;61.25293;921.603;;;;
2022/04/22 07:25:48;;;;;;;108.8;20.1;;;;;;;11.05;60.97363;921.6373;;;;
2022/04/22 07:28:10;;;;;;;18.7;7;;;;;;;11.05;60.66602;921.6334;;;;
2022/04/22 07:30:46;;;;;;;10.2;6.1;;;;;;;10.98;60.7002;921.5916;;;;
2022/04/22 07:33:10;;;;;;;17.7;6.9;;;;;;;10.73;62.36719;921.5967;;;;
2022/04/22 07:35:45;;;;;;;22.2;8.4;;;;;;;11.28;62.34375;921.5726;;;;
2022/04/22 07:38:10;;;;;;;20.2;7.9;;;;;;;11.95;59.65625;921.5833;;;;
2022/04/22 07:40:36;;;;;;;30.6;8.7;;;;;;;11.93;59.40332;921.618;;;;
2022/04/22 07:47:57;;;;;;;20;7.7;;;;;;;11.58;59.84668;921.5873;;;;
2022/04/22 07:50:29;;;;;;;23.4;9;;;;;;;11.89;59.09863;921.6284;;;;
2022/04/22 07:53:04;;;;;;;95.9;17.3;;;;;;;12.12;58.37305;921.5764;;;;
2022/04/22 07:55:32;;;;;;;44.1;10.1;;;;;;;12.43;57.31543;921.5854;;;;
2022/04/22 07:57:57;;;;;;;13;6.5;;;;;;;12.85;55.89063;921.5345;;;;
2022/04/22 08:00:33;;;;;;;15.6;6.9;;;;;;;13.15;54.5498;921.6283;;;;
2022/04/22 08:03:02;;;;;;;27.5;8.7;;;;;;;13.14;55.03027;921.5887;;;;
2022/04/22 08:05:27;;;;;;;10.7;6;;;;;;;12.77;56.13184;921.579;;;;
2022/04/22 08:08:00;;;;;;;28.6;8.9;;;;;;;12.81;56.20605;921.5353;;;;
2022/04/22 08:10:25;;;;;;;8.9;5.3;;;;;;;12.11;58.14453;921.6317;;;;
2022/04/22 08:12:57;;;;;;;11.1;5.9;;;;;;;11.96;57.45898;921.618;;;;
2022/04/22 08:15:31;;;;;;;8.7;5.5;;;;;;;11.8;58.36523;921.608;;;;
2022/04/22 08:17:56;;;;;;;10.5;5.9;;;;;;;11.98;57.01465;921.5938;;;;
2022/04/22 08:20:27;;;;;;;11.7;6.9;;;;;;;12.01;57.94727;921.6154;;;;
2022/04/22 08:22:51;;;;;;;8.1;6.7;;;;;;;11.61;60.10254;921.5269;;;;
2022/04/22 08:25:20;;;;;;;7.9;7;;;;;;;11.31;60.87207;921.5514;;;;
2022/04/22 08:27:47;;;;;;;19.8;8.7;;;;;;;11.54;60.27637;921.6216;;;;
2022/04/22 08:30:13;;;;;;;19.7;9.1;;;;;;;11.79;59.72656;921.6041;;;;
2022/04/22 08:32:43;;;;;;;9.8;7.1;;;;;;;11.7;60.48242;921.5994;;;;
2022/04/22 08:35:19;;;;;;;28.3;10.3;;;;;;;11.87;59.78418;921.5834;;;;
2022/04/22 08:37:45;;;;;;;18.5;9.3;;;;;;;11.98;59.43359;921.5672;;;;
2022/04/22 08:40:12;;;;;;;42.3;12.1;;;;;;;12.42;57.87598;921.5801;;;;
2022/04/22 08:42:37;;;;;;;29.7;11.5;;;;;;;12.59;57.06152;921.5041;;;;
2022/04/22 08:45:02;;;;;;;18.6;9.3;;;;;;;12.6;58.24414;921.5413;;;;
2022/04/22 08:50:02;;;;;;;36.1;12.2;;;;;;;12.99;55.66699;921.5172;;;;
2022/04/22 08:52:26;;;;;;;13.4;8.2;;;;;;;13.1;57.19629;921.5785;;;;
2022/04/22 08:54:51;;;;;;;8.5;6.7;;;;;;;13.54;54.65625;921.5325;;;;
2022/04/22 08:57:16;;;;;;;19;8.7;;;;;;;14;53.33301;921.5172;;;;
2022/04/22 08:59:44;;;;;;;16.8;8;;;;;;;13.74;54.23242;921.5071;;;;
2022/04/22 09:02:09;;;;;;;40.3;11.1;;;;;;;13.91;52.99902;921.4056;;;;
2022/04/22 09:04:38;;;;;;;18.6;9.1;;;;;;;13.73;54.17383;921.4978;;;;
2022/04/22 09:07:07;;;;;;;11;7.8;;;;;;;13.61;54.61816;921.4156;;;;
2022/04/22 09:09:33;;;;;;;14.2;8.8;;;;;;;13.55;54.96777;921.5516;;;;
2022/04/22 09:12:05;;;;;;;9.6;7.9;;;;;;;13.78;53.97266;921.5061;;;;
2022/04/22 09:14:29;;;;;;;10.5;7.9;;;;;;;13.56;54.46289;921.5033;;;;
2022/04/22 09:16:58;;;;;;;11.2;8.1;;;;;;;13.63;54.96777;921.4734;;;;
2022/04/22 09:19:29;;;;;;;11.4;8.8;;;;;;;13.57;56.40723;921.4623;;;;
2022/04/22 09:21:54;;;;;;;14.9;9.4;;;;;;;13.92;53.88672;921.5284;;;;
2022/04/22 09:24:23;;;;;;;13;8.5;;;;;;;14.43;54.22754;921.4989;;;;
2022/04/22 09:26:50;;;;;;;17.8;9.6;;;;;;;14.6;52.77246;921.46;;;;
2022/04/22 09:29:15;;;;;;;10.4;8.3;;;;;;;14.73;52.65039;921.5017;;;;
2022/04/22 09:31:45;;;;;;;19.2;9.9;;;;;;;14.68;52.125;921.4705;;;;
2022/04/22 09:34:16;;;;;;;13;8.7;;;;;;;14.22;54.88086;921.514;;;;
2022/04/22 09:44:02;;;;;;;15.5;8.9;;;;;;;13.74;55.29102;921.4102;;;;
2022/04/22 09:46:30;;;;;;;11.2;9;;;;;;;13.8;55.2168;921.4574;;;;
2022/04/22 09:48:54;;;;;;;14.5;9.8;;;;;;;13.56;55.72949;921.4081;;;;
2022/04/22 09:51:22;;;;;;;18.9;10;;;;;;;13.78;55.60742;921.4682;;;;
2022/04/22 09:53:46;;;;;;;11.8;8.9;;;;;;;13.67;55.61621;921.485;;;;
2022/04/22 09:56:19;;;;;;;13.3;8.4;;;;;;;14.1;53.63281;921.4782;;;;
2022/04/22 09:58:44;;;;;;;13.6;9;;;;;;;14.35;54.13672;921.45;;;;
2022/04/22 10:01:09;;;;;;;10.5;8.7;;;;;;;14.03;55.31641;921.45;;;;
2022/04/22 10:03:40;;;;;;;10.5;8.9;;;;;;;14.12;55.88086;921.46;;;;
2022/04/22 10:06:05;;;;;;;9.9;8.9;;;;;;;14.25;54.79199;921.3225;;;;
2022/04/22 10:08:30;;;;;;;9.6;8.6;;;;;;;14.27;54.1377;921.3915;;;;
2022/04/22 10:10:55;;;;;;;10.7;8.6;;;;;;;14.71;52.98242;921.3685;;;;
2022/04/22 10:13:21;;;;;;;10.9;9.4;;;;;;;14.28;54.65723;921.3599;;;;
2022/04/22 10:15:46;;;;;;;10.1;8.5;;;;;;;14.42;53.92578;921.3311;;;;
2022/04/22 10:22:37;;;;;;;10.7;8.8;;;;;;;14.81;52.11816;921.3513;;;;
2022/04/22 10:25:07;;;;;;;12;8.3;;;;;;;14.99;50.75488;921.2991;;;;
2022/04/22 10:27:32;;;;;;;9.5;8.4;;;;;;;14.94;50.83008;921.2978;;;;
2022/04/22 10:29:59;;;;;;;9.9;8.4;;;;;;;14.89;51.13477;921.3499;;;;
2022/04/22 10:32:22;;;;;;;9.6;8.6;;;;;;;14.3;53.49609;921.3513;;;;
2022/04/22 10:34:55;;;;;;;10.5;8.2;;;;;;;14.66;53.24121;921.3829;;;;
2022/04/22 10:37:27;;;;;;;11.3;9;;;;;;;14.62;54.07617;921.3908;;;;
2022/04/22 10:39:52;;;;;;;10.7;8.7;;;;;;;15.01;52.01465;921.4128;;;;
2022/04/22 10:42:25;;;;;;;14.5;9.4;;;;;;;15.09;51.73633;921.3583;;;;
2022/04/22 10:47:20;;;;;;;11.9;9.2;;;;;;;15.06;51.69824;921.3867;;;;
2022/04/22 10:49:45;;;;;;;9.8;8.5;;;;;;;15.03;50.99023;921.4191;;;;
2022/04/22 10:52:18;;;;;;;9.4;8.4;;;;;;;15.17;51.3418;921.442;;;;
2022/04/22 10:54:47;;;;;;;9.1;8.1;;;;;;;15.03;50.78223;921.4086;;;;
2022/04/22 10:57:18;;;;;;;10.1;8.5;;;;;;;15.07;51.31738;921.3895;;;;
2022/04/22 10:59:42;;;;;;;10.1;9;;;;;;;14.94;52.72168;921.3464;;;;
2022/04/22 11:02:07;;;;;;;10.1;8.7;;;;;;;15.13;52.38672;921.4283;;;;
2022/04/22 11:04:36;;;;;;;9.5;8.5;;;;;;;14.62;53.17773;921.3603;;;;
2022/04/22 11:07:02;;;;;;;10.7;9.1;;;;;;;14.33;53.11914;921.3811;;;;
2022/04/22 11:09:31;;;;;;;10.8;9.7;;;;;;;13.96;55.65332;921.3663;;;;
2022/04/22 11:11:57;;;;;;;9.7;8.7;;;;;;;14.02;54.94629;921.4306;;;;
2022/04/22 11:14:23;;;;;;;10.9;9.6;;;;;;;14.27;53.3418;921.4109;;;;
2022/04/22 11:16:54;;;;;;;11.1;9;;;;;;;14.19;54.42676;921.4651;;;;
2022/04/22 11:19:23;;;;;;;10;8.6;;;;;;;14.02;54.75098;921.4258;;;;
2022/04/22 11:21:52;;;;;;;10.4;8.5;;;;;;;14.21;54.42773;921.4622;;;;
2022/04/22 11:24:17;;;;;;;12.6;8.7;;;;;;;14.37;53.87402;921.4645;;;;
2022/04/22 11:26:44;;;;;;;12.5;8.8;;;;;;;14.31;54.92578;921.5057;;;;
2022/04/22 11:29:07;;;;;;;11.5;8.7;;;;;;;14.37;54.32324;921.5262;;;;
2022/04/22 11:31:36;;;;;;;10;8.9;;;;;;;14.23;54.41992;921.4761;;;;
2022/04/22 11:34:06;;;;;;;12.1;9.4;;;;;;;14.12;54.74023;921.4786;;;;
2022/04/22 11:36:31;;;;;;;12.6;9.8;;;;;;;14.06;54.89453;921.4924;;;;
2022/04/22 11:38:56;;;;;;;13.8;9.4;;;;;;;13.93;56.87891;921.5458;;;;
2022/04/22 11:41:21;;;;;;;10.2;9.1;;;;;;;14.19;54.97852;921.5765;;;;
2022/04/22 11:43:51;;;;;;;10.7;9.4;;;;;;;14.37;54.06934;921.5068;;;;
2022/04/22 11:46:17;;;;;;;10.6;9.5;;;;;;;14.41;54.39648;921.4711;;;;
2022/04/22 11:48:48;;;;;;;13.1;9.8;;;;;;;14.19;55.64746;921.5339;;;;
2022/04/22 11:51:13;;;;;;;10.6;9.5;;;;;;;14.51;54.9043;921.5574;;;;
2022/04/22 11:53:41;;;;;;;11.7;9.2;;;;;;;14.89;53.07227;921.5117;;;;
2022/04/22 11:56:06;;;;;;;11.1;9.7;;;;;;;14.89;53.68359;921.4892;;;;
2022/04/22 11:58:35;;;;;;;11.4;10.2;;;;;;;14.78;53.54297;921.4936;;;;
2022/04/22 12:05:54;;;;;;;11;9.6;;;;;;;14.93;53.1123;921.5248;;;;
2022/04/22 12:08:19;;;;;;;15.2;9.9;;;;;;;15;53.59277;921.5544;;;;
2022/04/22 12:10:48;;;;;;;13.5;9.6;;;;;;;14.81;53.87109;921.5317;;;;
2022/04/22 12:13:14;;;;;;;11.2;9.4;;;;;;;14.8;54.15625;921.4634;;;;
2022/04/22 12:15:48;;;;;;;11.1;9.1;;;;;;;15.1;52.16406;921.5616;;;;
2022/04/22 12:18:17;;;;;;;13.2;9.9;;;;;;;15.44;51.82324;921.6337;;;;
2022/04/22 12:20:45;;;;;;;11;9.9;;;;;;;15.34;52.65527;921.5862;;;;
2022/04/22 12:23:10;;;;;;;12.4;10.1;;;;;;;15.46;52.21875;921.5734;;;;
2022/04/22 12:25:35;;;;;;;11.9;9.7;;;;;;;15.33;52.60742;921.5914;;;;
2022/04/22 12:28:01;;;;;;;11.9;10;;;;;;;15.34;52.48047;921.5761;;;;
2022/04/22 12:30:30;;;;;;;14.1;10.3;;;;;;;15.74;51.34961;921.6024;;;;
2022/04/22 12:32:56;;;;;;;11.2;9.6;;;;;;;15.88;50.8584;921.5895;;;;
2022/04/22 12:35:25;;;;;;;11.3;10;;;;;;;16.17;50.49707;921.5659;;;;
2022/04/22 12:37:54;;;;;;;10.9;9.7;;;;;;;16.61;49.54102;921.5675;;;;
2022/04/22 12:40:19;;;;;;;11.2;9.6;;;;;;;16.4;49.95703;921.5644;;;;
2022/04/22 12:42:48;;;;;;;13.1;10;;;;;;;16.52;49.41602;921.5276;;;;
2022/04/22 12:52:38;;;;;;;11.3;10.1;;;;;;;16.04;53.30566;921.5411;;;;
2022/04/22 12:55:15;;;;;;;12.5;10.2;;;;;;;15.96;52.61328;921.5577;;;;
2022/04/22 12:57:43;;;;;;;12.5;10.8;;;;;;;16.16;50.91406;921.5315;;;;
2022/04/22 13:00:08;;;;;;;11.8;10.6;;;;;;;16.01;52.20215;921.5492;;;;
2022/04/22 13:02:34;;;;;;;12.7;11.3;;;;;;;16.04;50.93359;921.5701;;;;
2022/04/22 13:05:01;;;;;;;11.9;10.7;;;;;;;16.07;50.75293;921.5969;;;;
2022/04/22 13:07:27;;;;;;;14.6;11.4;;;;;;;16.09;51.04395;921.6106;;;;
2022/04/22 13:09:54;;;;;;;13.2;11.3;;;;;;;16.12;52.37695;921.5622;;;;
2022/04/22 13:12:19;;;;;;;12.6;11.3;;;;;;;16.22;50.79297;921.5158;;;;
2022/04/22 13:14:50;;;;;;;12.4;10.6;;;;;;;16.05;51.71094;921.4684;;;;
2022/04/22 13:17:19;;;;;;;13.1;10.9;;;;;;;16.22;51.88086;921.601;;;;
2022/04/22 13:19:44;;;;;;;11.8;10.4;;;;;;;16.29;51.44922;921.6531;;;;
2022/04/22 13:22:14;;;;;;;13.1;11.6;;;;;;;16.33;50.20508;921.6033;;;;
2022/04/22 13:24:44;;;;;;;15;12.2;;;;;;;16.27;51.33105;921.5719;;;;
2022/04/22 13:27:07;;;;;;;13.9;11.4;;;;;;;16.47;50.8916;921.4597;;;;
2022/04/22 13:29:36;;;;;;;14;10.6;;;;;;;16.6;50.80273;921.5331;;;;
2022/04/22 13:32:01;;;;;;;13;10.1;;;;;;;16.82;49.03418;921.5201;;;;
2022/04/22 13:34:28;;;;;;;13.7;11;;;;;;;17.04;50.18262;921.4573;;;;
2022/04/22 13:36:53;;;;;;;13.1;11.3;;;;;;;16.79;50.08301;921.4844;;;;
2022/04/22 13:39:23;;;;;;;12;10.6;;;;;;;16.77;49.28223;921.4648;;;;
2022/04/22 13:41:55;;;;;;;11.8;10.6;;;;;;;16.77;49.93066;921.4313;;;;
2022/04/22 13:57:46;;;;;;;11.1;9.5;;;;;;;16.49;50.80176;921.5377;;;;
2022/04/22 14:00:17;;;;;;;13.3;9.1;;;;;;;16.35;49.01563;921.5251;;;;
2022/04/22 14:02:47;;;;;;;9.5;8;;;;;;;16.45;48.53906;921.5298;;;;
2022/04/22 14:05:21;;;;;;;10.9;8.3;;;;;;;16.46;48.05566;921.5074;;;;
2022/04/22 14:07:46;;;;;;;9.4;8.3;;;;;;;16.51;49.20801;921.5986;;;;
2022/04/22 14:10:19;;;;;;;10.4;9;;;;;;;16.39;48.6377;921.5758;;;;
2022/04/22 14:12:48;;;;;;;11.6;9.2;;;;;;;16.07;49.2832;921.6075;;;;
2022/04/22 14:15:18;;;;;;;12.6;9.3;;;;;;;15.85;49.59375;921.6083;;;;
2022/04/22 14:17:44;;;;;;;10.8;8.6;;;;;;;16;50.54883;921.6675;;;;
2022/04/22 14:20:12;;;;;;;11.2;9.4;;;;;;;16.13;49.61523;921.6595;;;;
2022/04/22 14:22:44;;;;;;;11.1;9.4;;;;;;;16.11;50.17969;921.6819;;;;
2022/04/22 14:25:15;;;;;;;10.4;9.2;;;;;;;16.08;50.9502;921.628;;;;
2022/04/22 14:27:40;;;;;;;10.1;9;;;;;;;16.28;49.5625;921.7466;;;;
2022/04/22 14:30:13;;;;;;;10.5;8.8;;;;;;;16.13;49.99707;921.7986;;;;
2022/04/22 14:32:44;;;;;;;10.8;9.3;;;;;;;15.92;50.44629;921.7967;;;;
2022/04/22 14:35:18;;;;;;;10.5;9.4;;;;;;;15.9;51;921.8086;;;;
2022/04/22 14:37:49;;;;;;;10.5;9.2;;;;;;;15.9;50.86035;921.7285;;;;
2022/04/22 14:40:21;;;;;;;11.4;9.7;;;;;;;15.92;50.75781;921.8433;;;;
2022/04/22 14:42:53;;;;;;;10.6;9.5;;;;;;;15.85;51.375;921.7992;;;;
2022/04/22 14:45:17;;;;;;;13.1;10.3;;;;;;;16.01;51.20801;921.7612;;;;
2022/04/22 14:47:45;;;;;;;11.2;9.5;;;;;;;15.96;51.71191;921.7411;;;;
2022/04/22 14:50:18;;;;;;;12.4;10.4;;;;;;;16.07;51.14746;921.7927;;;;
2022/04/22 14:52:51;;;;;;;12.7;10.4;;;;;;;16.03;50.96875;921.7742;;;;
2022/04/22 14:55:18;;;;;;;11.6;10.4;;;;;;;15.98;52.36133;921.8008;;;;
2022/04/22 14:57:44;;;;;;;14.8;10.8;;;;;;;15.87;53.58496;921.8443;;;;
2022/04/22 15:00:17;;;;;;;12.5;10.7;;;;;;;15.9;52.94043;921.8279;;;;
2022/04/22 15:02:42;;;;;;;12.6;10.5;;;;;;;15.75;52.87695;921.8636;;;;
2022/04/22 15:05:18;;;;;;;12.5;10.8;;;;;;;15.91;51.85547;921.9118;;;;
2022/04/22 15:07:47;;;;;;;13.4;11.1;;;;;;;15.85;52.11328;921.9053;;;;
2022/04/22 15:10:10;;;;;;;12.5;10.8;;;;;;;15.67;51.93164;921.9274;;;;
2022/04/22 15:12:39;;;;;;;12.7;11.1;;;;;;;15.73;52.21484;921.9036;;;;
2022/04/22 15:15:13;;;;;;;13;10.8;;;;;;;15.54;54.00684;921.9973;;;;
2022/04/22 15:25:00;;;;;;;13.4;11.6;;;;;;;15.33;53.80762;922.0406;;;;
2022/04/22 15:27:26;;;;;;;12.4;10.7;;;;;;;15.36;53.67285;922.0628;;;;
2022/04/22 15:29:53;;;;;;;13.3;11.4;;;;;;;15.49;52.97266;922.0547;;;;
2022/04/22 15:32:18;;;;;;;14.1;11.2;;;;;;;15.34;53.52051;922.0603;;;;
2022/04/22 15:34:47;;;;;;;14.3;11.1;;;;;;;15.36;53.4873;922.0092;;;;
2022/04/22 15:37:11;;;;;;;14.8;11.7;;;;;;;15.32;54.18652;922.0067;;;;
2022/04/22 15:39:39;;;;;;;14.9;11.2;;;;;;;15.3;53.42285;922.019;;;;
2022/04/22 15:42:04;;;;;;;13.2;11;;;;;;;15.38;53.39844;921.9794;;;;
2022/04/22 15:44:33;;;;;;;14.5;11.8;;;;;;;15.38;53.43262;922.0781;;;;
2022/04/22 15:47:04;;;;;;;13.7;11.7;;;;;;;15.4;53.73535;922.0406;;;;
2022/04/22 15:49:30;;;;;;;12.9;11.4;;;;;;;15.26;53.98438;922.0535;;;;
2022/04/22 15:51:59;;;;;;;13.9;11.3;;;;;;;15.16;54.4668;922.1;;;;
2022/04/22 15:54:24;;;;;;;12.6;11.3;;;;;;;15.22;54.56738;922.0397;;;;
2022/04/22 15:56:51;;;;;;;13.2;11.7;;;;;;;15.2;55.05957;922.0441;;;;
2022/04/22 15:59:16;;;;;;;13.4;10.9;;;;;;;15.24;55.06543;922.1008;;;;
2022/04/22 16:01:46;;;;;;;12.5;11.1;;;;;;;15.2;55.02539;922.1252;;;;
2022/04/22 16:04:18;;;;;;;13.2;11;;;;;;;15.25;55.33203;922.2004;;;;
2022/04/22 16:06:43;;;;;;;12.7;11.2;;;;;;;15.19;55.39453;922.1198;;;;
2022/04/22 16:09:14;;;;;;;14;11.8;;;;;;;15.18;55.62402;922.1985;;;;
2022/04/22 16:16:33;;;;;;;14.2;11.7;;;;;;;15.08;55.41504;922.1875;;;;
2022/04/22 16:19:02;;;;;;;12.1;10.8;;;;;;;15.04;56.13672;922.1641;;;;
2022/04/22 16:21:26;;;;;;;13.7;11.7;;;;;;;15.04;55.95215;922.2249;;;;
2022/04/22 16:23:56;;;;;;;15.4;11.7;;;;;;;15.05;55.90723;922.2305;;;;
2022/04/22 16:26:19;;;;;;;12.9;11.5;;;;;;;15.01;56.13281;922.1752;;;;
2022/04/22 16:28:46;;;;;;;13;11.2;;;;;;;15.11;56.01758;922.2645;;;;
2022/04/22 16:31:11;;;;;;;12.3;10.8;;;;;;;15.02;56.37695;922.2633;;;;
2022/04/22 16:33:40;;;;;;;13;11.5;;;;;;;14.96;56.59863;922.2893;;;;
2022/04/22 16:36:05;;;;;;;14.3;11.7;;;;;;;15.02;56.27246;922.2393;;;;
2022/04/22 16:38:35;;;;;;;12.7;11;;;;;;;15.12;56.00879;922.2922;;;;